createdAt,value
2022-07-28T00:00:16.009Z,123.37
2022-07-28T00:02:43.545Z,123.47
2022-07-28T00:05:11.777Z,122.33
2022-07-28T00:07:39.558Z,123.60
2022-07-28T00:10:07.988Z,122.57
2022-07-28T00:12:35.749Z,122.87
2022-07-28T00:15:03.600Z,122.07
2022-07-28T00:17:30.652Z,122.40
2022-07-28T00:19:58.406Z,122.87
2022-07-28T00:22:27.961Z,122.30
2022-07-28T00:24:56.124Z,122.43
2022-07-28T00:27:23.297Z,126.53
2022-07-28T00:29:51.316Z,121.93
2022-07-28T00:32:22.000Z,121.70
2022-07-28T00:34:50.974Z,122.10
2022-07-28T00:37:20.994Z,122.00
2022-07-28T00:39:48.425Z,123.50
2022-07-28T00:42:21.277Z,122.47
2022-07-28T00:44:49.369Z,122.57
2022-07-28T00:47:16.925Z,126.00
2022-07-28T00:49:45.877Z,122.40
2022-07-28T00:52:16.957Z,122.47
2022-07-28T00:54:44.521Z,123.40
2022-07-28T00:57:12.028Z,124.07
2022-07-28T00:59:39.056Z,123.10
2022-07-28T01:02:06.879Z,122.47
2022-07-28T01:04:34.678Z,123.20
2022-07-28T01:07:28.046Z,122.37
2022-07-28T01:10:13.911Z,122.93
2022-07-28T01:13:11.239Z,122.77
2022-07-28T01:15:46.234Z,123.00
2022-07-28T01:18:27.069Z,122.87
2022-07-28T01:21:07.221Z,122.63
2022-07-28T01:24:02.526Z,122.27
2022-07-28T01:26:54.696Z,123.37
2022-07-28T01:30:05.038Z,122.20
2022-07-28T01:32:53.038Z,122.03
2022-07-28T01:35:29.434Z,121.97
2022-07-28T01:38:05.484Z,121.87
2022-07-28T01:40:36.375Z,124.93
2022-07-28T01:43:09.581Z,122.27
2022-07-28T01:45:42.927Z,123.03
2022-07-28T01:48:12.498Z,122.00
2022-07-28T01:50:42.593Z,123.80
2022-07-28T01:53:14.423Z,121.47
2022-07-28T01:55:44.728Z,122.50
2022-07-28T01:58:14.855Z,122.30
2022-07-28T02:00:43.007Z,122.50
2022-07-28T02:03:13.034Z,122.47
2022-07-28T02:05:42.770Z,122.47
2022-07-28T02:08:12.143Z,122.93
2022-07-28T02:10:43.996Z,122.37
2022-07-28T02:13:12.711Z,122.27
2022-07-28T02:15:40.908Z,122.47
2022-07-28T02:18:10.335Z,121.90
2022-07-28T02:20:38.828Z,122.07
2022-07-28T02:23:07.344Z,122.07
2022-07-28T02:25:36.600Z,121.87
2022-07-28T02:28:07.800Z,121.70
2022-07-28T02:30:47.443Z,121.03
2022-07-28T02:33:57.907Z,121.60
2022-07-28T02:36:35.355Z,121.07
2022-07-28T02:39:08.216Z,121.47
2022-07-28T02:41:41.809Z,121.37
2022-07-28T02:44:21.771Z,121.40
2022-07-28T02:46:55.300Z,121.80
2022-07-28T02:49:31.063Z,120.83
2022-07-28T02:52:02.207Z,121.07
2022-07-28T02:54:32.800Z,121.33
2022-07-28T02:57:01.271Z,122.80
2022-07-28T02:59:29.820Z,120.83
2022-07-28T03:01:58.848Z,121.47
2022-07-28T03:04:46.412Z,121.40
2022-07-28T03:07:14.420Z,121.60
2022-07-28T03:09:48.017Z,121.20
2022-07-28T03:12:16.180Z,121.37
2022-07-28T03:14:43.627Z,121.17
2022-07-28T03:17:11.403Z,121.20
2022-07-28T03:19:39.175Z,121.40
2022-07-28T03:22:06.761Z,122.17
2022-07-28T03:24:48.136Z,121.07
2022-07-28T03:27:35.214Z,122.27
2022-07-28T03:30:15.301Z,121.47
2022-07-28T03:32:56.077Z,121.30
2022-07-28T03:35:25.144Z,121.93
2022-07-28T03:38:22.492Z,121.97
2022-07-28T03:40:51.252Z,121.87
2022-07-28T03:43:26.010Z,122.23
2022-07-28T03:45:54.910Z,120.87
2022-07-28T03:48:28.966Z,121.47
2022-07-28T03:50:56.396Z,121.83
2022-07-28T03:53:27.344Z,120.90
2022-07-28T03:55:55.770Z,121.47
2022-07-28T03:58:28.650Z,122.00
2022-07-28T04:00:58.330Z,121.50
2022-07-28T04:03:42.548Z,121.73
2022-07-28T04:06:13.388Z,121.60
2022-07-28T04:08:41.772Z,121.77
2022-07-28T04:11:10.455Z,120.93
2022-07-28T04:13:37.973Z,121.33
2022-07-28T04:16:06.980Z,120.97
2022-07-28T04:18:34.865Z,121.37
2022-07-28T04:21:02.365Z,121.37
2022-07-28T04:23:30.759Z,123.50
2022-07-28T04:25:58.322Z,125.30
2022-07-28T04:28:25.904Z,121.57
2022-07-28T04:30:53.500Z,121.57
2022-07-28T04:33:21.150Z,120.77
2022-07-28T04:35:48.805Z,120.60
2022-07-28T04:38:17.792Z,122.07
2022-07-28T04:40:45.165Z,120.90
2022-07-28T04:43:12.593Z,120.97
2022-07-28T04:45:45.976Z,121.13
2022-07-28T04:48:22.401Z,121.97
2022-07-28T04:50:51.088Z,121.77
2022-07-28T04:53:18.985Z,122.07
2022-07-28T04:55:46.134Z,121.60
2022-07-28T04:58:14.218Z,121.67
2022-07-28T05:00:45.165Z,121.67
2022-07-28T05:03:13.167Z,120.87
2022-07-28T05:05:40.759Z,121.37
2022-07-28T05:08:08.240Z,121.27
2022-07-28T05:10:35.720Z,122.00
2022-07-28T05:13:07.427Z,122.30
2022-07-28T05:15:35.282Z,122.00
2022-07-28T05:18:03.566Z,122.37
2022-07-28T05:20:31.085Z,121.97
2022-07-28T05:22:58.651Z,123.00
2022-07-28T05:25:26.487Z,122.87
2022-07-28T05:27:54.824Z,122.23
2022-07-28T05:30:23.078Z,123.30
2022-07-28T05:32:50.922Z,123.90
2022-07-28T05:35:18.464Z,124.60
2022-07-28T05:37:45.955Z,122.50
2022-07-28T05:40:15.738Z,122.27
2022-07-28T05:42:44.750Z,122.73
2022-07-28T05:45:16.221Z,122.50
2022-07-28T05:47:54.030Z,122.27
2022-07-28T05:50:23.077Z,122.40
2022-07-28T05:52:51.529Z,123.10
2022-07-28T05:55:19.332Z,122.37
2022-07-28T05:57:47.241Z,122.17
2022-07-28T06:00:19.197Z,122.60
2022-07-28T06:02:49.306Z,122.07
2022-07-28T06:05:22.278Z,123.10
2022-07-28T06:07:51.352Z,122.00
2022-07-28T06:10:23.557Z,121.87
2022-07-28T06:12:54.952Z,123.27
2022-07-28T06:15:27.932Z,122.17
2022-07-28T06:17:55.788Z,121.50
2022-07-28T06:20:24.908Z,121.60
2022-07-28T06:22:54.896Z,119.80
2022-07-28T06:25:26.552Z,121.87
2022-07-28T06:27:57.165Z,121.70
2022-07-28T06:30:25.239Z,120.77
2022-07-28T06:32:53.715Z,121.67
2022-07-28T06:35:22.033Z,120.67
2022-07-28T06:37:51.800Z,121.47
2022-07-28T06:40:20.661Z,120.17
2022-07-28T06:42:49.853Z,121.97
2022-07-28T06:45:21.418Z,120.37
2022-07-28T06:47:53.856Z,122.27
2022-07-28T06:50:26.049Z,120.67
2022-07-28T06:52:59.063Z,121.60
2022-07-28T06:55:34.501Z,121.20
2022-07-28T06:58:04.139Z,122.13
2022-07-28T07:00:31.446Z,120.37
2022-07-28T07:03:00.651Z,120.63
2022-07-28T07:05:32.354Z,120.40
2022-07-28T07:08:00.694Z,123.07
2022-07-28T07:10:28.321Z,122.50
2022-07-28T07:12:55.411Z,120.53
2022-07-28T07:15:22.920Z,120.33
2022-07-28T07:17:50.504Z,120.27
2022-07-28T07:20:18.890Z,118.70
2022-07-28T07:22:47.402Z,117.27
2022-07-28T07:25:17.933Z,116.27
2022-07-28T07:27:47.108Z,117.67
2022-07-28T07:30:16.553Z,119.13
2022-07-28T07:32:44.578Z,119.80
2022-07-28T07:35:12.372Z,118.07
2022-07-28T07:37:40.049Z,118.57
2022-07-28T07:40:09.043Z,118.00
2022-07-28T07:42:37.333Z,119.37
2022-07-28T07:45:05.195Z,118.67
2022-07-28T07:47:32.197Z,118.73
2022-07-28T07:50:03.930Z,117.20
2022-07-28T07:52:32.287Z,116.00
2022-07-28T07:54:59.805Z,117.87
2022-07-28T07:57:26.917Z,116.97
2022-07-28T07:59:53.937Z,119.07
2022-07-28T08:03:50.049Z,119.93
2022-07-28T08:06:17.773Z,119.80
2022-07-28T08:08:55.486Z,117.90
2022-07-28T08:11:22.941Z,118.07
2022-07-28T08:13:50.686Z,117.77
2022-07-28T08:16:18.235Z,116.57
2022-07-28T08:18:45.250Z,115.40
2022-07-28T08:21:13.252Z,117.13
2022-07-28T08:23:40.987Z,117.60
2022-07-28T08:26:08.406Z,117.47
2022-07-28T08:28:35.995Z,116.33
2022-07-28T08:31:03.589Z,113.67
2022-07-28T08:33:31.149Z,112.40
2022-07-28T08:35:58.598Z,112.70
2022-07-28T08:38:26.243Z,112.57
2022-07-28T08:40:59.131Z,113.30
2022-07-28T08:43:38.702Z,116.00
2022-07-28T08:46:06.862Z,117.27
2022-07-28T08:48:37.970Z,118.67
2022-07-28T08:51:09.804Z,124.97
2022-07-28T08:53:40.063Z,126.07
2022-07-28T08:56:12.344Z,129.17
2022-07-28T08:58:41.219Z,129.80
2022-07-28T09:01:10.751Z,132.63
2022-07-28T09:03:39.432Z,132.07
2022-07-28T09:06:07.850Z,130.47
2022-07-28T09:08:35.582Z,130.90
2022-07-28T09:11:03.344Z,129.07
2022-07-28T09:13:31.995Z,121.20
2022-07-28T09:16:00.208Z,119.07
2022-07-28T09:18:27.874Z,113.17
2022-07-28T09:20:55.431Z,114.80
2022-07-28T09:23:42.026Z,113.37
2022-07-28T09:26:12.595Z,112.87
2022-07-28T09:28:57.380Z,114.60
2022-07-28T09:31:27.905Z,112.70
2022-07-28T09:34:06.005Z,111.20
2022-07-28T09:36:42.119Z,111.00
2022-07-28T09:39:10.404Z,111.30
2022-07-28T09:41:49.919Z,110.40
2022-07-28T09:44:22.704Z,111.10
2022-07-28T09:46:50.811Z,115.73
2022-07-28T09:49:19.345Z,116.57
2022-07-28T09:52:05.744Z,122.20
2022-07-28T09:54:37.375Z,116.10
2022-07-28T09:57:11.659Z,117.17
2022-07-28T09:59:52.128Z,113.07
2022-07-28T10:02:29.512Z,114.20
2022-07-28T10:05:00.114Z,125.30
2022-07-28T10:07:30.008Z,115.20
2022-07-28T10:10:05.505Z,116.27
2022-07-28T10:12:36.409Z,115.10
2022-07-28T10:15:34.678Z,112.43
2022-07-28T10:18:04.448Z,113.77
2022-07-28T10:20:34.131Z,112.37
2022-07-28T10:23:06.897Z,111.53
2022-07-28T10:25:35.489Z,111.37
2022-07-28T10:28:04.235Z,109.67
2022-07-28T10:30:37.999Z,114.17
2022-07-28T10:33:14.720Z,110.40
2022-07-28T10:35:54.783Z,110.37
2022-07-28T10:38:27.892Z,117.80
2022-07-28T10:40:58.315Z,118.80
2022-07-28T10:43:28.951Z,129.67
2022-07-28T10:46:07.381Z,123.57
2022-07-28T10:48:38.688Z,125.63
2022-07-28T10:51:07.052Z,123.67
2022-07-28T10:54:06.849Z,125.50
2022-07-28T10:56:46.707Z,120.17
2022-07-28T10:59:31.061Z,125.20
2022-07-28T11:01:58.714Z,125.17
2022-07-28T11:04:41.282Z,123.73
2022-07-28T11:07:14.804Z,123.97
2022-07-28T11:09:42.081Z,127.77
2022-07-28T11:12:15.208Z,128.00
2022-07-28T11:14:44.612Z,122.57
2022-07-28T11:17:13.588Z,118.63
2022-07-28T11:22:34.812Z,117.00
2022-07-28T11:25:18.101Z,120.07
2022-07-28T11:27:54.110Z,120.57
2022-07-28T11:30:35.570Z,120.27
2022-07-28T11:33:04.466Z,121.00
2022-07-28T11:35:54.545Z,119.70
2022-07-28T11:38:24.026Z,115.80
2022-07-28T11:40:55.947Z,114.17
2022-07-28T11:43:35.667Z,114.97
2022-07-28T11:46:10.450Z,114.97
2022-07-28T11:48:47.239Z,117.97
2022-07-28T11:51:15.823Z,116.87
2022-07-28T11:53:53.014Z,115.07
2022-07-28T11:56:31.519Z,117.77
2022-07-28T11:59:04.445Z,121.93
2022-07-28T12:01:38.150Z,116.80
2022-07-28T12:04:13.495Z,116.77
2022-07-28T12:06:42.953Z,114.17
2022-07-28T12:09:13.323Z,121.50
2022-07-28T12:11:42.364Z,130.27
2022-07-28T12:14:17.178Z,125.87
2022-07-28T12:16:50.063Z,126.37
2022-07-28T12:19:19.407Z,125.57
2022-07-28T12:21:50.954Z,122.87
2022-07-28T12:24:31.134Z,117.93
2022-07-28T12:27:00.516Z,115.93
2022-07-28T12:29:35.785Z,118.07
2022-07-28T12:32:11.076Z,119.40
2022-07-28T12:34:44.300Z,126.30
2022-07-28T12:37:14.277Z,123.10
2022-07-28T12:39:43.732Z,131.13
2022-07-28T12:42:13.330Z,124.93
2022-07-28T12:44:51.286Z,126.57
2022-07-28T12:47:28.706Z,123.37
2022-07-28T12:50:13.928Z,119.27
2022-07-28T12:53:01.971Z,116.00
2022-07-28T12:55:31.919Z,115.60
2022-07-28T12:58:00.019Z,114.00
2022-07-28T13:00:36.619Z,117.37
2022-07-28T13:03:25.505Z,117.67
2022-07-28T13:06:05.325Z,116.40
2022-07-28T13:08:47.827Z,115.73
2022-07-28T13:11:42.593Z,115.97
2022-07-28T13:14:05.303Z,116.90
2022-07-28T13:16:34.209Z,114.77
2022-07-28T13:19:04.330Z,114.67
2022-07-28T13:21:57.665Z,113.20
2022-07-28T13:24:29.468Z,114.60
2022-07-28T13:26:58.945Z,114.07
2022-07-28T13:29:26.477Z,113.47
2022-07-28T13:31:57.222Z,113.10
2022-07-28T13:34:24.820Z,113.87
2022-07-28T13:36:52.600Z,114.77
2022-07-28T13:39:20.315Z,122.60
2022-07-28T13:41:57.971Z,128.40
2022-07-28T13:44:30.683Z,126.97
2022-07-28T13:46:59.658Z,123.80
2022-07-28T13:49:30.175Z,119.37
2022-07-28T13:51:59.538Z,115.90
2022-07-28T13:54:28.240Z,114.20
2022-07-28T13:57:15.257Z,112.23
2022-07-28T13:59:44.035Z,112.87
2022-07-28T14:02:14.898Z,114.80
2022-07-28T14:04:45.929Z,115.77
2022-07-28T14:07:20.372Z,115.70
2022-07-28T14:09:50.556Z,114.57
2022-07-28T14:12:18.504Z,115.00
2022-07-28T14:14:48.442Z,114.53
2022-07-28T14:20:11.148Z,113.20
2022-07-28T14:22:38.633Z,114.97
2022-07-28T14:25:06.383Z,115.37
2022-07-28T14:27:34.227Z,114.90
2022-07-28T14:30:03.476Z,116.07
2022-07-28T14:32:33.144Z,116.17
2022-07-28T14:35:01.992Z,116.50
2022-07-28T14:37:47.139Z,113.90
2022-07-28T14:40:18.290Z,113.20
2022-07-28T14:42:45.729Z,112.70
2022-07-28T14:45:13.549Z,112.33
2022-07-28T14:47:44.601Z,113.33
2022-07-28T14:50:13.779Z,113.90
2022-07-28T14:52:45.077Z,114.97
2022-07-28T14:55:13.550Z,115.17
2022-07-28T14:57:52.187Z,125.10
2022-07-28T15:00:25.084Z,114.80
2022-07-28T15:02:54.188Z,115.37
2022-07-28T15:05:23.005Z,115.00
2022-07-28T15:07:52.134Z,115.30
2022-07-28T15:10:20.915Z,116.97
2022-07-28T15:12:49.998Z,116.80
2022-07-28T15:15:17.750Z,116.93
2022-07-28T15:17:45.298Z,117.10
2022-07-28T15:20:13.066Z,119.80
2022-07-28T15:22:40.554Z,119.87
2022-07-28T15:25:08.651Z,118.17
2022-07-28T15:27:36.186Z,119.67
2022-07-28T15:30:03.934Z,119.87
2022-07-28T15:32:47.531Z,121.17
2022-07-28T15:35:25.335Z,119.70
2022-07-28T15:37:52.334Z,118.27
2022-07-28T15:40:19.978Z,116.03
2022-07-28T15:42:47.494Z,111.47
2022-07-28T15:45:15.141Z,109.80
2022-07-28T15:47:42.765Z,111.73
2022-07-28T15:50:10.686Z,114.37
2022-07-28T15:52:38.552Z,114.57
2022-07-28T15:55:06.954Z,117.50
2022-07-28T15:57:37.938Z,118.20
2022-07-28T16:00:07.400Z,116.00
2022-07-28T16:02:35.085Z,117.40
2022-07-28T16:05:02.792Z,114.80
2022-07-28T16:07:31.038Z,114.63
2022-07-28T16:09:58.746Z,114.70
2022-07-28T16:12:26.643Z,113.83
2022-07-28T16:14:54.492Z,114.13
2022-07-28T16:17:23.183Z,113.50
2022-07-28T16:19:53.953Z,114.93
2022-07-28T16:22:27.711Z,115.27
2022-07-28T16:24:55.508Z,114.80
2022-07-28T16:27:22.999Z,115.47
2022-07-28T16:29:50.759Z,115.47
2022-07-28T16:32:18.286Z,115.57
2022-07-28T16:34:48.032Z,114.97
2022-07-28T16:37:19.340Z,113.97
2022-07-28T16:39:48.160Z,114.70
2022-07-28T16:42:15.635Z,116.20
2022-07-28T16:44:43.565Z,117.77
2022-07-28T16:47:12.176Z,118.77
2022-07-28T16:49:43.685Z,120.60
2022-07-28T16:52:14.035Z,121.07
2022-07-28T16:54:42.207Z,120.70
2022-07-28T16:57:09.924Z,121.07
2022-07-28T16:59:48.130Z,121.67
2022-07-28T17:02:18.520Z,122.10
2022-07-28T17:04:47.093Z,121.60
2022-07-28T17:07:14.819Z,121.30
2022-07-28T17:09:42.523Z,121.47
2022-07-28T17:12:10.089Z,122.80
2022-07-28T17:14:37.700Z,123.93
2022-07-28T17:17:06.380Z,123.07
2022-07-28T17:19:33.833Z,123.33
2022-07-28T17:22:04.729Z,123.00
2022-07-28T17:24:32.637Z,122.40
2022-07-28T17:29:47.905Z,123.17
2022-07-28T17:32:15.357Z,123.20
2022-07-28T17:34:42.877Z,124.13
2022-07-28T17:37:10.397Z,123.73
2022-07-28T17:39:37.977Z,123.40
2022-07-28T17:42:05.681Z,121.43
2022-07-28T17:44:33.761Z,122.47
2022-07-28T17:47:03.351Z,121.47
2022-07-28T17:49:31.092Z,122.93
2022-07-28T17:51:58.808Z,119.57
2022-07-28T17:54:27.362Z,121.53
2022-07-28T17:56:59.658Z,119.60
2022-07-28T17:59:34.291Z,119.47
2022-07-28T18:02:18.941Z,119.97
2022-07-28T18:04:47.265Z,119.43
2022-07-28T18:07:15.678Z,120.27
2022-07-28T18:09:43.324Z,120.97
2022-07-28T18:12:11.877Z,121.00
2022-07-28T18:14:47.685Z,120.40
2022-07-28T18:17:15.257Z,120.17
2022-07-28T18:19:45.567Z,119.43
2022-07-28T18:22:13.377Z,119.57
2022-07-28T18:24:40.917Z,117.90
2022-07-28T18:27:08.452Z,118.87
2022-07-28T18:29:38.204Z,118.67
2022-07-28T18:32:08.565Z,119.37
2022-07-28T18:34:39.174Z,118.63
2022-07-28T18:37:06.913Z,120.27
2022-07-28T18:39:34.807Z,118.17
2022-07-28T18:42:02.394Z,117.77
2022-07-28T18:44:30.082Z,119.60
2022-07-28T18:46:57.638Z,119.50
2022-07-28T18:49:25.246Z,120.10
2022-07-28T18:51:53.290Z,121.57
2022-07-28T18:54:27.770Z,122.10
2022-07-28T18:56:58.042Z,123.57
2022-07-28T18:59:26.400Z,124.67
2022-07-28T19:01:53.986Z,124.57
2022-07-28T19:04:21.690Z,126.57
2022-07-28T19:06:49.686Z,127.20
2022-07-28T19:09:19.406Z,125.80
2022-07-28T19:11:47.791Z,125.57
2022-07-28T19:14:16.446Z,127.77
2022-07-28T19:16:44.817Z,127.07
2022-07-28T19:19:14.876Z,127.87
2022-07-28T19:21:43.154Z,127.73
2022-07-28T19:24:13.683Z,128.53
2022-07-28T19:26:43.426Z,129.17
2022-07-28T19:29:11.180Z,129.67
2022-07-28T19:31:39.568Z,129.57
2022-07-28T19:34:07.944Z,131.07
2022-07-28T19:36:38.643Z,132.07
2022-07-28T19:39:06.211Z,132.37
2022-07-28T19:41:38.390Z,133.67
2022-07-28T19:44:06.233Z,135.30
2022-07-28T19:46:33.842Z,134.37
2022-07-28T19:49:01.517Z,134.17
2022-07-28T19:51:29.071Z,134.97
2022-07-28T19:53:58.385Z,137.40
2022-07-28T19:56:31.300Z,136.77
2022-07-28T19:59:00.397Z,134.70
2022-07-28T20:01:28.465Z,137.60
2022-07-28T20:04:00.814Z,134.30
2022-07-28T20:06:32.601Z,132.80
2022-07-28T20:09:02.081Z,133.50
2022-07-28T20:11:32.649Z,133.40
2022-07-28T20:14:01.112Z,133.10
2022-07-28T20:16:28.729Z,131.33
2022-07-28T20:18:59.288Z,130.67
2022-07-28T20:21:26.773Z,130.03
2022-07-28T20:23:56.286Z,129.10
2022-07-28T20:26:26.171Z,128.80
2022-07-28T20:28:58.165Z,128.20
2022-07-28T20:31:25.754Z,127.57
2022-07-28T20:33:53.376Z,127.70
2022-07-28T20:36:22.267Z,125.70
2022-07-28T20:38:51.395Z,122.37
2022-07-28T20:41:18.987Z,124.90
2022-07-28T20:43:59.722Z,123.87
2022-07-28T20:46:34.052Z,122.10
2022-07-28T20:49:01.779Z,122.80
2022-07-28T20:51:31.391Z,122.97
2022-07-28T20:53:58.892Z,124.40
2022-07-28T20:56:26.341Z,123.30
2022-07-28T20:58:54.060Z,124.10
2022-07-28T21:01:23.441Z,124.47
2022-07-28T21:03:51.580Z,123.60
2022-07-28T21:06:18.972Z,124.57
2022-07-28T21:08:47.904Z,124.40
2022-07-28T21:11:17.592Z,125.07
2022-07-28T21:13:45.796Z,123.97
2022-07-28T21:16:16.532Z,124.97
2022-07-28T21:18:44.133Z,126.00
2022-07-28T21:21:11.744Z,126.07
2022-07-28T21:23:39.289Z,126.17
2022-07-28T21:26:12.908Z,125.87
2022-07-28T21:29:00.129Z,125.90
2022-07-28T21:31:27.817Z,126.57
2022-07-28T21:33:56.293Z,126.87
2022-07-28T21:36:23.940Z,126.47
2022-07-28T21:38:52.677Z,126.10
2022-07-28T21:41:25.129Z,126.27
2022-07-28T21:43:55.655Z,127.37
2022-07-28T21:46:26.097Z,126.20
2022-07-28T21:48:56.213Z,127.40
2022-07-28T21:51:24.465Z,127.30
2022-07-28T21:53:53.097Z,128.70
2022-07-28T21:56:20.996Z,129.60
2022-07-28T21:58:48.537Z,127.57
2022-07-28T22:01:16.263Z,130.87
2022-07-28T22:03:44.541Z,128.50
2022-07-28T22:06:12.155Z,128.97
2022-07-28T22:08:39.276Z,128.07
2022-07-28T22:11:07.183Z,128.90
2022-07-28T22:13:34.724Z,133.80
2022-07-28T22:16:02.395Z,129.00
2022-07-28T22:18:30.079Z,128.37
2022-07-28T22:20:57.171Z,129.60
2022-07-28T22:23:29.744Z,129.63
2022-07-28T22:25:57.802Z,130.00
2022-07-28T22:28:29.433Z,130.70
2022-07-28T22:31:13.462Z,129.87
2022-07-28T22:33:41.051Z,129.77
2022-07-28T22:36:09.377Z,127.00
2022-07-28T22:38:37.396Z,128.57
2022-07-28T22:41:04.918Z,129.17
2022-07-28T22:43:33.517Z,130.07
2022-07-28T22:46:01.159Z,130.07
2022-07-28T22:48:28.835Z,129.40
2022-07-28T22:50:56.382Z,131.30
2022-07-28T22:53:23.867Z,129.37
2022-07-28T22:55:51.357Z,127.67
2022-07-28T22:58:18.889Z,128.20
2022-07-28T23:00:46.490Z,128.03
2022-07-28T23:03:16.670Z,128.77
2022-07-28T23:05:43.880Z,128.27
2022-07-28T23:08:11.416Z,131.30
2022-07-28T23:10:40.579Z,129.00
2022-07-28T23:13:08.092Z,129.93
2022-07-28T23:15:39.591Z,128.97
2022-07-28T23:18:10.788Z,129.60
2022-07-28T23:20:39.992Z,128.97
2022-07-28T23:23:08.384Z,128.53
2022-07-28T23:25:42.508Z,130.53
2022-07-28T23:28:11.644Z,127.67
2022-07-28T23:30:39.221Z,126.90
2022-07-28T23:33:07.162Z,129.63
2022-07-28T23:35:37.843Z,128.00
2022-07-28T23:38:05.376Z,131.00
2022-07-28T23:40:32.891Z,129.67
2022-07-28T23:43:00.613Z,129.60
2022-07-28T23:45:28.392Z,129.20
2022-07-28T23:47:58.879Z,129.80
2022-07-28T23:50:26.848Z,128.90
2022-07-28T23:52:53.864Z,130.37
2022-07-28T23:55:21.553Z,130.60
2022-07-28T23:57:49.022Z,128.47
